Flight Track Log - Related Links

Times and Time Zones

All times are in EDT time to prevent confusion due to time zone crossing. See the AAL937 flight status page for this flight to view local times or setup timezone preferences in your user account.

Time Position Orientation Groundspeed Altitude Reporting Facility
EDT Latitude Longitude Course Direction KTS MPH feet Rate Location/Type
Wed 07:08:48 AM 29.6297 -95.2947 355° North 182 209 1,000  Level Houston Center
Wed 07:09:37 AM 29.6125 -95.2678 126° Southeast 185 213 2,700 1,756 Climbing Houston Center
Wed 07:10:10 AM 29.6375 -95.2536 26° Northeast 199 229 3,400 1,309 Climbing Houston Center
Wed 07:10:32 AM 29.6639 -95.2567 354° North 259 298 3,900 2,656 Climbing Houston Center
Wed 07:11:00 AM 29.9247 -95.2896 356° North  Level FlightAware
Wed 07:11:11 AM 29.7136 -95.2603 356° North 271 312 6,100  Level Houston Center
Wed 07:11:45 AM 29.7589 -95.2622 358° North 288 331 8,100 3,300 Climbing Houston Center
Wed 07:12:00 AM 30.0220 -95.2977 356° North  Level FlightAware
Wed 07:12:11 AM 29.7928 -95.2639 358° North 281 323 9,400  Level Houston Center
Wed 07:13:00 AM 30.1192 -95.3069 355° North  Level FlightAware
Wed 07:13:12 AM 29.8747 -95.2700 356° North 293 337 11,500  Level Houston Center
Wed 07:14:13 AM 29.9731 -95.2769 356° North 339 390 13,800 2,262 Climbing Houston Center
Wed 07:15:14 AM 30.0767 -95.2819 358° North 363 418 16,100 2,331 Climbing Houston Center
Wed 07:16:14 AM 30.1836 -95.2633 North 385 443 18,500 2,281 Climbing Houston Center
Wed 07:17:15 AM 30.2933 -95.2389 11° North 394 453 20,700 1,869 Climbing Houston Center
Wed 07:18:16 AM 30.4086 -95.2297 North 411 473 22,300 1,574 Climbing Houston Center
Wed 07:19:17 AM 30.5292 -95.2353 358° North 429 494 23,900 1,574 Climbing Houston Center
Wed 07:20:18 AM 30.6511 -95.2375 359° North 430 495 25,500 1,475 Climbing Houston Center
Wed 07:21:19 AM 30.7747 -95.2394 359° North 439 505 26,900 1,190 Climbing Houston Center
Wed 07:22:19 AM 30.9019 -95.2425 359° North 452 520 27,900 545 Climbing Houston Center
Wed 07:23:20 AM 31.0244 -95.2706 349° North 464 534 28,000 49 Climbing Houston Center
Wed 07:24:21 AM 31.1169 -95.3678 318° Northwest 447 514 28,000  Level Houston Center
Wed 07:25:22 AM 31.2231 -95.4467 328° Northwest 447 514 28,000  Level Houston Center
Wed 07:26:23 AM 31.3500 -95.5444 327° Northwest 448 516 28,000  Level Houston Center
Wed 07:27:26 AM 31.4508 -95.6247 326° Northwest 453 521 28,000  Level Fort Center
Wed 07:28:27 AM 31.5489 -95.7111 323° Northwest 446 513 28,000  Level Fort Center
Wed 07:29:28 AM 31.6478 -95.7981 323° Northwest 444 511 28,000 -49 Level Fort Center
Wed 07:30:29 AM 31.7519 -95.8908 323° Northwest 448 516 27,900 -639 Descending Fort Center
Wed 07:31:30 AM 31.8472 -95.9744 323° Northwest 449 517 26,700 -1,230 Descending Fort Center
Wed 07:32:31 AM 31.9464 -96.0608 324° Northwest 448 516 25,400 -1,574 Descending Fort Center
Wed 07:33:32 AM 32.0469 -96.1481 324° Northwest 428 493 23,500 -2,410 Descending Fort Center
Wed 07:34:33 AM 32.1383 -96.2308 323° Northwest 420 483 20,500 -2,852 Descending Fort Center
Wed 07:35:34 AM 32.2397 -96.3217 323° Northwest 411 473 17,700 -2,361 Descending Fort Center
Wed 07:36:35 AM 32.3261 -96.3983 323° Northwest 391 450 15,700 -1,721 Descending Fort Center
Wed 07:37:36 AM 32.4011 -96.4700 321° Northwest 349 402 14,200 -1,869 Descending Fort Center
Wed 07:38:37 AM 32.4711 -96.5558 314° West 337 388 11,900 -1,574 Descending Fort Center
Wed 07:39:38 AM 32.5369 -96.6342 315° West 337 388 11,000 -443 Descending Fort Center
Wed 07:40:39 AM 32.5956 -96.7039 315° West 300 345 11,000  Level Fort Center
Wed 07:41:40 AM 32.6539 -96.7736 315° West 297 342 11,000  Level Fort Center
Wed 07:42:41 AM 32.7125 -96.8433 315° West 297 342 11,000  Level Fort Center
Wed 07:43:42 AM 32.7683 -96.9028 318° Northwest 253 291 11,000 -541 Level Fort Center
Wed 07:44:43 AM 32.8456 -96.9031 360° North 256 295 9,900 -1,268 Descending Fort Center
Wed 07:45:45 AM 32.9147 -96.9056 358° North 252 290 8,400 -1,561 Descending Fort Center
Wed 07:46:46 AM 32.9836 -96.9061 360° North 249 287 6,700 -1,623 Descending Fort Center
Wed 07:47:47 AM 33.0547 -96.9092 358° North 257 296 5,100 -1,279 Descending Fort Center
Wed 07:48:48 AM 33.0769 -96.9781 291° West 222 255 4,100 -1,082 Descending Fort Center
Wed 07:49:49 AM 33.0422 -97.0164 223° Southwest 181 208 2,900 -1,024 Descending Fort Center
Wed 07:50:51 AM 32.9933 -97.0253 189° South 177 204 2,000 -780 Descending Fort Center
Wed 07:51:52 AM 32.9556 -97.0264 181° South 134 154 1,300 -689 Descending Fort Center
Wed 07:52:53 AM 32.9197 -97.0272 181° South 130 150 600 -689 Descending Fort Center

Login

Don't have an account? Register now (free) for customized features, flight alerts, and more!